sensor_id;sensor_type;location;lat;lon;timestamp;pressure;altitude;pressure_sealevel;temperature;humidity
75852;BME280;64500;52.632;20.656;2022-10-31T00:01:22;100800.39;;;7.30;76.11
75852;BME280;64500;52.632;20.656;2022-10-31T00:03:49;100800.23;;;7.27;76.33
75852;BME280;64500;52.632;20.656;2022-10-31T00:06:16;100799.52;;;7.26;76.50
75852;BME280;64500;52.632;20.656;2022-10-31T00:08:54;100797.20;;;7.37;76.82
75852;BME280;64500;52.632;20.656;2022-10-31T00:11:22;100800.14;;;7.48;76.78
75852;BME280;64500;52.632;20.656;2022-10-31T00:13:49;100802.55;;;7.57;76.82
75852;BME280;64500;52.632;20.656;2022-10-31T00:16:17;100801.14;;;7.58;76.73
75852;BME280;64500;52.632;20.656;2022-10-31T00:18:48;100803.60;;;7.58;76.23
75852;BME280;64500;52.632;20.656;2022-10-31T00:21:16;100802.20;;;7.56;76.23
75852;BME280;64500;52.632;20.656;2022-10-31T00:23:43;100805.72;;;7.60;76.21
75852;BME280;64500;52.632;20.656;2022-10-31T00:26:10;100807.66;;;7.57;75.95
75852;BME280;64500;52.632;20.656;2022-10-31T00:28:37;100808.23;;;7.48;75.35
75852;BME280;64500;52.632;20.656;2022-10-31T00:31:07;100815.84;;;7.40;75.48
75852;BME280;64500;52.632;20.656;2022-10-31T00:33:35;100817.61;;;7.32;75.61
75852;BME280;64500;52.632;20.656;2022-10-31T00:36:04;100815.33;;;7.34;76.08
75852;BME280;64500;52.632;20.656;2022-10-31T00:38:31;100819.15;;;7.42;76.34
75852;BME280;64500;52.632;20.656;2022-10-31T00:40:58;100819.49;;;7.46;76.32
75852;BME280;64500;52.632;20.656;2022-10-31T00:43:25;100814.19;;;7.53;76.36
75852;BME280;64500;52.632;20.656;2022-10-31T00:45:52;100810.64;;;7.57;75.78
75852;BME280;64500;52.632;20.656;2022-10-31T00:48:18;100817.38;;;7.45;75.39
75852;BME280;64500;52.632;20.656;2022-10-31T00:50:45;100812.54;;;7.27;75.03
75852;BME280;64500;52.632;20.656;2022-10-31T00:53:12;100813.49;;;7.06;75.16
75852;BME280;64500;52.632;20.656;2022-10-31T00:55:39;100813.88;;;6.92;75.68
75852;BME280;64500;52.632;20.656;2022-10-31T00:58:06;100817.23;;;6.90;75.82
75852;BME280;64500;52.632;20.656;2022-10-31T01:00:33;100814.94;;;6.85;75.88
75852;BME280;64500;52.632;20.656;2022-10-31T01:03:00;100814.23;;;6.85;76.14
75852;BME280;64500;52.632;20.656;2022-10-31T01:05:26;100816.88;;;6.83;75.87
75852;BME280;64500;52.632;20.656;2022-10-31T01:07:53;100817.77;;;6.77;75.80
75852;BME280;64500;52.632;20.656;2022-10-31T01:10:20;100812.67;;;6.76;76.19
75852;BME280;64500;52.632;20.656;2022-10-31T01:12:48;100813.17;;;6.87;76.36
75852;BME280;64500;52.632;20.656;2022-10-31T01:15:21;100821.09;;;6.83;75.95
75852;BME280;64500;52.632;20.656;2022-10-31T01:17:49;100818.84;;;6.66;75.56
75852;BME280;64500;52.632;20.656;2022-10-31T01:20:17;100816.73;;;6.53;75.84
75852;BME280;64500;52.632;20.656;2022-10-31T01:22:44;100816.22;;;6.56;76.43
75852;BME280;64500;52.632;20.656;2022-10-31T01:25:11;100816.56;;;6.60;76.27
75852;BME280;64500;52.632;20.656;2022-10-31T01:27:38;100818.51;;;6.56;76.13
75852;BME280;64500;52.632;20.656;2022-10-31T01:30:06;100819.02;;;6.49;75.89
75852;BME280;64500;52.632;20.656;2022-10-31T01:32:33;100820.44;;;6.39;75.94
75852;BME280;64500;52.632;20.656;2022-10-31T01:34:59;100817.63;;;6.33;76.08
75852;BME280;64500;52.632;20.656;2022-10-31T01:37:26;100820.09;;;6.35;76.51
75852;BME280;64500;52.632;20.656;2022-10-31T01:39:52;100822.01;;;6.41;76.50
75852;BME280;64500;52.632;20.656;2022-10-31T01:42:21;100821.14;;;6.38;76.09
75852;BME280;64500;52.632;20.656;2022-10-31T01:44:53;100819.38;;;6.27;75.89
75852;BME280;64500;52.632;20.656;2022-10-31T01:47:27;100817.63;;;6.14;76.33
75852;BME280;64500;52.632;20.656;2022-10-31T01:50:00;100814.29;;;6.17;76.50
75852;BME280;64500;52.632;20.656;2022-10-31T01:52:31;100813.94;;;6.13;76.64
75852;BME280;64500;52.632;20.656;2022-10-31T01:57:30;100814.64;;;6.06;76.76
75852;BME280;64500;52.632;20.656;2022-10-31T02:00:02;100817.44;;;6.00;76.88
75852;BME280;64500;52.632;20.656;2022-10-31T02:02:30;100814.97;;;6.00;77.00
75852;BME280;64500;52.632;20.656;2022-10-31T02:05:00;100813.23;;;6.06;77.06
75852;BME280;64500;52.632;20.656;2022-10-31T02:07:34;100807.77;;;6.06;77.07
75852;BME280;64500;52.632;20.656;2022-10-31T02:10:03;100811.98;;;5.98;76.69
75852;BME280;64500;52.632;20.656;2022-10-31T02:12:31;100811.77;;;5.89;76.66
75852;BME280;64500;52.632;20.656;2022-10-31T02:14:59;100811.42;;;5.91;76.85
75852;BME280;64500;52.632;20.656;2022-10-31T02:17:29;100807.56;;;5.92;76.76
75852;BME280;64500;52.632;20.656;2022-10-31T02:20:10;100809.14;;;5.92;76.77
75852;BME280;64500;52.632;20.656;2022-10-31T02:25:19;100812.19;;;6.10;77.01
75852;BME280;64500;52.632;20.656;2022-10-31T02:33:51;100820.26;;;6.13;76.76
75852;BME280;64500;52.632;20.656;2022-10-31T02:39:12;100826.38;;;6.05;76.58
75852;BME280;64500;52.632;20.656;2022-10-31T02:44:46;100827.63;;;6.19;76.64
75852;BME280;64500;52.632;20.656;2022-10-31T02:47:19;100828.16;;;6.20;76.65
75852;BME280;64500;52.632;20.656;2022-10-31T02:52:33;100833.05;;;6.08;76.16
75852;BME280;64500;52.632;20.656;2022-10-31T02:58:10;100840.42;;;6.07;76.47
75852;BME280;64500;52.632;20.656;2022-10-31T03:06:30;100845.20;;;6.55;77.30
75852;BME280;64500;52.632;20.656;2022-10-31T03:09:22;100851.52;;;6.65;76.81
75852;BME280;64500;52.632;20.656;2022-10-31T03:12:04;100849.95;;;6.58;76.22
75852;BME280;64500;52.632;20.656;2022-10-31T03:14:41;100855.73;;;6.43;75.36
75852;BME280;64500;52.632;20.656;2022-10-31T03:17:16;100858.35;;;6.21;75.06
75852;BME280;64500;52.632;20.656;2022-10-31T03:19:48;100855.88;;;6.18;75.73
75852;BME280;64500;52.632;20.656;2022-10-31T03:22:21;100860.10;;;6.22;76.00
75852;BME280;64500;52.632;20.656;2022-10-31T03:24:50;100861.85;;;6.23;75.99
75852;BME280;64500;52.632;20.656;2022-10-31T03:27:22;100865.20;;;6.25;76.18
75852;BME280;64500;52.632;20.656;2022-10-31T03:29:54;100867.66;;;6.32;76.26
75852;BME280;64500;52.632;20.656;2022-10-31T03:32:32;100869.79;;;6.44;76.60
75852;BME280;64500;52.632;20.656;2022-10-31T03:35:03;100867.33;;;6.54;76.15
75852;BME280;64500;52.632;20.656;2022-10-31T03:37:34;100870.48;;;6.59;76.29
75852;BME280;64500;52.632;20.656;2022-10-31T03:40:04;100871.36;;;6.71;76.42
75852;BME280;64500;52.632;20.656;2022-10-31T03:42:36;100870.30;;;6.76;75.91
75852;BME280;64500;52.632;20.656;2022-10-31T03:45:14;100869.25;;;6.53;74.76
75852;BME280;64500;52.632;20.656;2022-10-31T03:47:44;100873.98;;;6.21;74.13
75852;BME280;64500;52.632;20.656;2022-10-31T03:50:13;100877.98;;;6.06;74.93
75852;BME280;64500;52.632;20.656;2022-10-31T03:56:01;100882.61;;;5.79;74.49
75852;BME280;64500;52.632;20.656;2022-10-31T03:58:34;100878.67;;;5.60;74.47
75852;BME280;64500;52.632;20.656;2022-10-31T04:01:06;100879.17;;;5.51;74.64
75852;BME280;64500;52.632;20.656;2022-10-31T04:03:36;100880.54;;;5.44;74.73
75852;BME280;64500;52.632;20.656;2022-10-31T04:06:09;100883.13;;;5.35;75.24
75852;BME280;64500;52.632;20.656;2022-10-31T04:08:59;100882.06;;;5.32;75.47
75852;BME280;64500;52.632;20.656;2022-10-31T04:11:31;100885.09;;;5.41;76.12
75852;BME280;64500;52.632;20.656;2022-10-31T04:14:01;100881.24;;;5.44;75.75
75852;BME280;64500;52.632;20.656;2022-10-31T04:16:28;100884.09;;;5.52;76.17
75852;BME280;64500;52.632;20.656;2022-10-31T04:18:55;100886.77;;;5.69;76.57
75852;BME280;64500;52.632;20.656;2022-10-31T04:21:30;100890.35;;;5.83;76.41
75852;BME280;64500;52.632;20.656;2022-10-31T04:23:57;100891.06;;;5.90;76.10
75852;BME280;64500;52.632;20.656;2022-10-31T04:26:24;100887.61;;;5.98;76.16
75852;BME280;64500;52.632;20.656;2022-10-31T04:28:51;100885.89;;;6.12;76.47
75852;BME280;64500;52.632;20.656;2022-10-31T04:31:18;100887.48;;;6.20;76.25
75852;BME280;64500;52.632;20.656;2022-10-31T04:33:45;100892.58;;;6.16;75.53
75852;BME280;64500;52.632;20.656;2022-10-31T04:36:12;100889.90;;;6.02;74.89
75852;BME280;64500;52.632;20.656;2022-10-31T04:38:40;100890.18;;;5.83;74.48
75852;BME280;64500;52.632;20.656;2022-10-31T04:41:06;100890.30;;;5.70;74.66
75852;BME280;64500;52.632;20.656;2022-10-31T04:43:33;100884.84;;;5.68;74.98
75852;BME280;64500;52.632;20.656;2022-10-31T04:46:00;100886.45;;;5.72;75.31
75852;BME280;64500;52.632;20.656;2022-10-31T04:48:27;100886.27;;;5.71;75.13
75852;BME280;64500;52.632;20.656;2022-10-31T04:50:59;100884.48;;;5.62;74.74
75852;BME280;64500;52.632;20.656;2022-10-31T04:53:26;100890.74;;;5.50;74.94
75852;BME280;64500;52.632;20.656;2022-10-31T04:55:53;100891.39;;;5.39;75.03
75852;BME280;64500;52.632;20.656;2022-10-31T04:58:20;100889.42;;;5.31;75.16
75852;BME280;64500;52.632;20.656;2022-10-31T05:00:47;100887.85;;;5.32;75.50
75852;BME280;64500;52.632;20.656;2022-10-31T05:03:17;100891.84;;;5.24;75.57
75852;BME280;64500;52.632;20.656;2022-10-31T05:05:44;100890.92;;;5.21;75.48
75852;BME280;64500;52.632;20.656;2022-10-31T05:08:11;100890.61;;;5.24;75.55
75852;BME280;64500;52.632;20.656;2022-10-31T05:10:38;100892.00;;;5.24;75.66
75852;BME280;64500;52.632;20.656;2022-10-31T05:13:05;100891.27;;;5.18;75.57
75852;BME280;64500;52.632;20.656;2022-10-31T05:15:33;100897.00;;;5.09;75.55
75852;BME280;64500;52.632;20.656;2022-10-31T05:17:59;100897.09;;;4.97;75.75
75852;BME280;64500;52.632;20.656;2022-10-31T05:20:28;100900.20;;;4.91;75.66
75852;BME280;64500;52.632;20.656;2022-10-31T05:22:57;100902.16;;;4.96;76.25
75852;BME280;64500;52.632;20.656;2022-10-31T05:25:26;100901.70;;;5.04;76.31
75852;BME280;64500;52.632;20.656;2022-10-31T05:27:54;100901.75;;;5.13;76.44
75852;BME280;64500;52.632;20.656;2022-10-31T05:30:27;100902.38;;;5.27;76.91
75852;BME280;64500;52.632;20.656;2022-10-31T05:32:55;100904.05;;;5.48;77.27
75852;BME280;64500;52.632;20.656;2022-10-31T05:35:28;100903.07;;;5.65;77.29
75852;BME280;64500;52.632;20.656;2022-10-31T05:37:55;100904.31;;;5.65;76.57
75852;BME280;64500;52.632;20.656;2022-10-31T05:40:24;100898.47;;;5.53;76.02
75852;BME280;64500;52.632;20.656;2022-10-31T05:42:53;100895.84;;;5.53;76.30
75852;BME280;64500;52.632;20.656;2022-10-31T05:45:21;100898.50;;;5.58;76.90
75852;BME280;64500;52.632;20.656;2022-10-31T05:47:57;100904.30;;;5.64;77.25
75852;BME280;64500;52.632;20.656;2022-10-31T05:50:27;100906.61;;;5.72;77.29
75852;BME280;64500;52.632;20.656;2022-10-31T05:52:57;100902.79;;;5.81;77.37
75852;BME280;64500;52.632;20.656;2022-10-31T05:55:24;100908.09;;;5.90;77.73
75852;BME280;64500;52.632;20.656;2022-10-31T05:57:53;100908.48;;;5.95;77.71
75852;BME280;64500;52.632;20.656;2022-10-31T06:00:21;100903.09;;;6.06;77.91
75852;BME280;64500;52.632;20.656;2022-10-31T06:02:48;100899.93;;;6.15;77.60
75852;BME280;64500;52.632;20.656;2022-10-31T06:05:15;100900.98;;;6.16;77.10
75852;BME280;64500;52.632;20.656;2022-10-31T06:07:43;100909.41;;;6.12;76.88
75852;BME280;64500;52.632;20.656;2022-10-31T06:10:10;100910.46;;;6.09;77.21
75852;BME280;64500;52.632;20.656;2022-10-31T06:12:37;100912.93;;;6.12;77.34
75852;BME280;64500;52.632;20.656;2022-10-31T06:15:05;100911.01;;;6.21;77.69
75852;BME280;64500;52.632;20.656;2022-10-31T06:17:36;100908.92;;;6.33;77.71
75852;BME280;64500;52.632;20.656;2022-10-31T06:20:04;100911.23;;;6.47;77.82
75852;BME280;64500;52.632;20.656;2022-10-31T06:22:30;100911.06;;;6.56;77.80
75852;BME280;64500;52.632;20.656;2022-10-31T06:24:57;100917.04;;;6.63;77.92
75852;BME280;64500;52.632;20.656;2022-10-31T06:27:24;100913.36;;;6.76;78.03
75852;BME280;64500;52.632;20.656;2022-10-31T06:29:52;100911.93;;;6.82;78.14
75852;BME280;64500;52.632;20.656;2022-10-31T06:32:19;100911.07;;;6.84;78.09
75852;BME280;64500;52.632;20.656;2022-10-31T06:34:46;100911.58;;;6.90;78.58
75852;BME280;64500;52.632;20.656;2022-10-31T06:37:15;100911.40;;;7.06;79.10
75852;BME280;64500;52.632;20.656;2022-10-31T06:39:42;100916.65;;;7.20;79.13
75852;BME280;64500;52.632;20.656;2022-10-31T06:42:09;100915.73;;;7.32;79.19
75852;BME280;64500;52.632;20.656;2022-10-31T06:44:36;100913.59;;;7.49;79.71
75852;BME280;64500;52.632;20.656;2022-10-31T06:47:05;100918.78;;;7.70;79.64
75852;BME280;64500;52.632;20.656;2022-10-31T06:49:31;100922.94;;;7.88;79.43
75852;BME280;64500;52.632;20.656;2022-10-31T06:51:58;100923.38;;;8.06;79.66
75852;BME280;64500;52.632;20.656;2022-10-31T06:54:25;100922.10;;;8.14;79.37
75852;BME280;64500;52.632;20.656;2022-10-31T06:56:52;100921.86;;;8.25;80.18
75852;BME280;64500;52.632;20.656;2022-10-31T06:59:19;100927.42;;;8.41;80.29
75852;BME280;64500;52.632;20.656;2022-10-31T07:01:46;100931.30;;;8.42;80.07
75852;BME280;64500;52.632;20.656;2022-10-31T07:04:13;100932.66;;;8.49;80.26
75852;BME280;64500;52.632;20.656;2022-10-31T07:06:39;100929.42;;;8.60;80.67
75852;BME280;64500;52.632;20.656;2022-10-31T07:09:06;100929.91;;;8.62;81.12
75852;BME280;64500;52.632;20.656;2022-10-31T07:11:33;100931.64;;;8.68;81.17
75852;BME280;64500;52.632;20.656;2022-10-31T07:13:59;100927.00;;;8.75;81.39
75852;BME280;64500;52.632;20.656;2022-10-31T07:16:26;100926.64;;;8.77;81.46
75852;BME280;64500;52.632;20.656;2022-10-31T07:18:53;100922.73;;;8.80;81.91
75852;BME280;64500;52.632;20.656;2022-10-31T07:21:20;100924.44;;;8.86;82.26
75852;BME280;64500;52.632;20.656;2022-10-31T07:23:48;100921.42;;;8.90;82.58
75852;BME280;64500;52.632;20.656;2022-10-31T07:26:15;100928.20;;;9.00;82.62
75852;BME280;64500;52.632;20.656;2022-10-31T07:28:42;100930.19;;;9.15;82.72
75852;BME280;64500;52.632;20.656;2022-10-31T07:31:09;100929.77;;;9.21;82.65
75852;BME280;64500;52.632;20.656;2022-10-31T07:33:36;100935.48;;;9.32;82.68
75852;BME280;64500;52.632;20.656;2022-10-31T07:36:03;100939.05;;;9.45;82.87
75852;BME280;64500;52.632;20.656;2022-10-31T07:38:30;100945.75;;;9.60;82.72
75852;BME280;64500;52.632;20.656;2022-10-31T07:40:56;100948.63;;;9.72;82.76
75852;BME280;64500;52.632;20.656;2022-10-31T07:43:23;100946.48;;;9.74;82.57
75852;BME280;64500;52.632;20.656;2022-10-31T07:45:51;100946.75;;;9.82;82.55
75852;BME280;64500;52.632;20.656;2022-10-31T07:48:18;100949.82;;;9.91;82.55
75852;BME280;64500;52.632;20.656;2022-10-31T07:50:46;100950.02;;;10.03;82.48
75852;BME280;64500;52.632;20.656;2022-10-31T07:53:14;100948.67;;;10.11;82.39
75852;BME280;64500;52.632;20.656;2022-10-31T07:55:41;100947.55;;;10.17;82.06
75852;BME280;64500;52.632;20.656;2022-10-31T07:58:13;100950.16;;;10.18;81.94
75852;BME280;64500;52.632;20.656;2022-10-31T08:00:41;100951.31;;;10.28;81.96
75852;BME280;64500;52.632;20.656;2022-10-31T08:03:11;100949.19;;;10.28;81.66
75852;BME280;64500;52.632;20.656;2022-10-31T08:05:38;100951.95;;;10.33;81.87
75852;BME280;64500;52.632;20.656;2022-10-31T08:08:07;100956.98;;;10.39;81.82
75852;BME280;64500;52.632;20.656;2022-10-31T08:10:35;100960.30;;;10.42;81.69
75852;BME280;64500;52.632;20.656;2022-10-31T08:13:11;100960.89;;;10.49;81.90
75852;BME280;64500;52.632;20.656;2022-10-31T08:15:39;100959.26;;;10.65;81.84
75852;BME280;64500;52.632;20.656;2022-10-31T08:18:13;100958.23;;;10.74;81.47
75852;BME280;64500;52.632;20.656;2022-10-31T08:20:41;100963.00;;;10.75;81.26
75852;BME280;64500;52.632;20.656;2022-10-31T08:23:09;100962.98;;;10.76;81.24
75852;BME280;64500;52.632;20.656;2022-10-31T08:25:37;100965.42;;;10.89;81.38
75852;BME280;64500;52.632;20.656;2022-10-31T08:28:05;100965.10;;;10.86;81.00
75852;BME280;64500;52.632;20.656;2022-10-31T08:30:34;100963.20;;;10.95;81.02
75852;BME280;64500;52.632;20.656;2022-10-31T08:33:12;100964.38;;;10.99;80.68
75852;BME280;64500;52.632;20.656;2022-10-31T08:35:39;100966.23;;;11.14;81.29
75852;BME280;64500;52.632;20.656;2022-10-31T08:38:12;100970.71;;;11.31;80.97
75852;BME280;64500;52.632;20.656;2022-10-31T08:40:39;100972.09;;;11.43;80.74
75852;BME280;64500;52.632;20.656;2022-10-31T08:43:12;100970.66;;;11.54;80.41
75852;BME280;64500;52.632;20.656;2022-10-31T08:45:39;100967.84;;;11.71;80.50
75852;BME280;64500;52.632;20.656;2022-10-31T08:48:13;100971.89;;;11.81;80.16
75852;BME280;64500;52.632;20.656;2022-10-31T08:50:40;100968.67;;;11.93;80.06
75852;BME280;64500;52.632;20.656;2022-10-31T08:53:14;100969.15;;;11.97;79.46
75852;BME280;64500;52.632;20.656;2022-10-31T08:55:42;100961.68;;;11.90;78.96
75852;BME280;64500;52.632;20.656;2022-10-31T08:58:14;100963.56;;;12.01;79.42
75852;BME280;64500;52.632;20.656;2022-10-31T09:00:43;100964.96;;;12.18;79.35
75852;BME280;64500;52.632;20.656;2022-10-31T09:03:21;100963.95;;;12.25;78.29
75852;BME280;64500;52.632;20.656;2022-10-31T09:05:48;100968.82;;;12.29;78.42
75852;BME280;64500;52.632;20.656;2022-10-31T09:08:16;100969.85;;;12.38;78.43
75852;BME280;64500;52.632;20.656;2022-10-31T09:10:43;100965.03;;;12.55;78.63
75852;BME280;64500;52.632;20.656;2022-10-31T09:13:21;100967.77;;;12.75;79.15
75852;BME280;64500;52.632;20.656;2022-10-31T09:15:49;100969.98;;;12.93;78.29
75852;BME280;64500;52.632;20.656;2022-10-31T09:18:20;100968.69;;;12.95;77.48
75852;BME280;64500;52.632;20.656;2022-10-31T09:20:48;100971.68;;;12.89;76.77
75852;BME280;64500;52.632;20.656;2022-10-31T09:23:20;100972.48;;;12.85;76.81
75852;BME280;64500;52.632;20.656;2022-10-31T09:25:49;100971.02;;;12.94;77.43
75852;BME280;64500;52.632;20.656;2022-10-31T09:28:18;100970.02;;;12.99;76.61
75852;BME280;64500;52.632;20.656;2022-10-31T09:30:50;100966.13;;;12.98;76.53
75852;BME280;64500;52.632;20.656;2022-10-31T09:33:17;100961.81;;;13.07;76.64
75852;BME280;64500;52.632;20.656;2022-10-31T09:35:44;100962.20;;;13.13;76.57
75852;BME280;64500;52.632;20.656;2022-10-31T09:38:14;100961.03;;;13.24;76.39
75852;BME280;64500;52.632;20.656;2022-10-31T09:40:45;100961.19;;;13.26;76.05
75852;BME280;64500;52.632;20.656;2022-10-31T09:50:45;100952.66;;;13.18;75.86
75852;BME280;64500;52.632;20.656;2022-10-31T09:53:29;100960.23;;;13.28;75.92
75852;BME280;64500;52.632;20.656;2022-10-31T09:55:59;100959.95;;;13.26;75.45
75852;BME280;64500;52.632;20.656;2022-10-31T09:58:28;100965.42;;;13.19;75.20
75852;BME280;64500;52.632;20.656;2022-10-31T10:01:01;100970.17;;;13.21;75.53
75852;BME280;64500;52.632;20.656;2022-10-31T10:03:35;100967.42;;;13.18;75.16
75852;BME280;64500;52.632;20.656;2022-10-31T10:06:15;100965.11;;;13.18;75.11
75852;BME280;64500;52.632;20.656;2022-10-31T10:08:44;100960.07;;;13.20;75.00
75852;BME280;64500;52.632;20.656;2022-10-31T10:17:08;100960.35;;;13.38;74.81
75852;BME280;64500;52.632;20.656;2022-10-31T10:30:23;100965.86;;;13.77;74.67
75852;BME280;64500;52.632;20.656;2022-10-31T10:32:56;100959.61;;;13.84;74.08
75852;BME280;64500;52.632;20.656;2022-10-31T10:35:32;100963.36;;;13.90;74.51
75852;BME280;64500;52.632;20.656;2022-10-31T10:40:57;100957.05;;;13.99;73.59
75852;BME280;64500;52.632;20.656;2022-10-31T10:43:36;100952.89;;;14.02;73.41
75852;BME280;64500;52.632;20.656;2022-10-31T10:46:29;100950.34;;;14.04;73.08
75852;BME280;64500;52.632;20.656;2022-10-31T10:52:13;100952.34;;;14.09;72.70
75852;BME280;64500;52.632;20.656;2022-10-31T10:54:44;100957.67;;;14.08;72.69
75852;BME280;64500;52.632;20.656;2022-10-31T11:00:18;100959.54;;;14.23;73.56
75852;BME280;64500;52.632;20.656;2022-10-31T11:02:45;100957.92;;;14.35;73.17
75852;BME280;64500;52.632;20.656;2022-10-31T11:05:26;100959.08;;;14.38;72.96
75852;BME280;64500;52.632;20.656;2022-10-31T11:07:54;100956.70;;;14.40;72.70
75852;BME280;64500;52.632;20.656;2022-10-31T11:10:21;100947.68;;;14.38;72.31
75852;BME280;64500;52.632;20.656;2022-10-31T11:15:49;100947.34;;;14.38;72.56
75852;BME280;64500;52.632;20.656;2022-10-31T11:18:21;100946.25;;;14.39;72.15
75852;BME280;64500;52.632;20.656;2022-10-31T11:20:53;100939.66;;;14.34;72.32
75852;BME280;64500;52.632;20.656;2022-10-31T11:23:22;100936.11;;;14.33;72.48
75852;BME280;64500;52.632;20.656;2022-10-31T11:25:58;100939.20;;;14.31;72.14
75852;BME280;64500;52.632;20.656;2022-10-31T11:28:28;100934.24;;;14.31;72.42
75852;BME280;64500;52.632;20.656;2022-10-31T11:31:00;100932.08;;;14.31;72.61
75852;BME280;64500;52.632;20.656;2022-10-31T11:35:54;100935.68;;;14.42;72.19
75852;BME280;64500;52.632;20.656;2022-10-31T11:38:24;100939.59;;;14.36;72.27
75852;BME280;64500;52.632;20.656;2022-10-31T11:40:54;100940.31;;;14.35;72.01
75852;BME280;64500;52.632;20.656;2022-10-31T11:43:23;100937.94;;;14.31;71.91
75852;BME280;64500;52.632;20.656;2022-10-31T11:45:50;100932.54;;;14.28;71.85
75852;BME280;64500;52.632;20.656;2022-10-31T11:48:22;100928.55;;;14.30;72.16
75852;BME280;64500;52.632;20.656;2022-10-31T11:50:54;100928.88;;;14.31;71.70
75852;BME280;64500;52.632;20.656;2022-10-31T11:53:28;100930.39;;;14.28;71.91
75852;BME280;64500;52.632;20.656;2022-10-31T11:56:12;100934.72;;;14.32;71.85
75852;BME280;64500;52.632;20.656;2022-10-31T11:58:40;100932.89;;;14.34;71.79
75852;BME280;64500;52.632;20.656;2022-10-31T12:01:25;100933.55;;;14.36;71.93
75852;BME280;64500;52.632;20.656;2022-10-31T12:04:13;100928.59;;;14.41;71.96
75852;BME280;64500;52.632;20.656;2022-10-31T12:06:42;100927.55;;;14.47;71.89
75852;BME280;64500;52.632;20.656;2022-10-31T12:09:20;100927.41;;;14.44;71.80
75852;BME280;64500;52.632;20.656;2022-10-31T12:12:10;100925.58;;;14.47;71.84
75852;BME280;64500;52.632;20.656;2022-10-31T12:17:29;100921.71;;;14.51;71.85
75852;BME280;64500;52.632;20.656;2022-10-31T12:20:39;100926.40;;;14.55;72.09
75852;BME280;64500;52.632;20.656;2022-10-31T12:26:06;100919.09;;;14.55;71.66
75852;BME280;64500;52.632;20.656;2022-10-31T12:34:02;100924.58;;;14.57;71.53
75852;BME280;64500;52.632;20.656;2022-10-31T12:39:25;100918.50;;;14.68;71.58
75852;BME280;64500;52.632;20.656;2022-10-31T12:45:08;100910.27;;;14.80;71.39
75852;BME280;64500;52.632;20.656;2022-10-31T12:47:50;100916.55;;;14.79;70.84
75852;BME280;64500;52.632;20.656;2022-10-31T12:53:15;100920.19;;;14.76;70.96
75852;BME280;64500;52.632;20.656;2022-10-31T12:59:13;100918.52;;;14.89;71.08
75852;BME280;64500;52.632;20.656;2022-10-31T13:06:55;100910.45;;;14.91;71.06
75852;BME280;64500;52.632;20.656;2022-10-31T13:09:34;100907.15;;;14.94;70.93
75852;BME280;64500;52.632;20.656;2022-10-31T13:12:16;100903.41;;;14.94;70.57
75852;BME280;64500;52.632;20.656;2022-10-31T13:14:49;100907.08;;;14.91;70.62
75852;BME280;64500;52.632;20.656;2022-10-31T13:17:41;100906.02;;;14.91;70.66
75852;BME280;64500;52.632;20.656;2022-10-31T13:20:18;100902.96;;;14.92;70.63
75852;BME280;64500;52.632;20.656;2022-10-31T13:22:49;100898.34;;;14.91;70.54
75852;BME280;64500;52.632;20.656;2022-10-31T13:25:22;100897.04;;;14.88;70.34
75852;BME280;64500;52.632;20.656;2022-10-31T13:27:56;100895.31;;;14.86;70.34
75852;BME280;64500;52.632;20.656;2022-10-31T13:30:37;100892.27;;;14.86;70.53
75852;BME280;64500;52.632;20.656;2022-10-31T13:33:20;100892.77;;;14.88;70.40
75852;BME280;64500;52.632;20.656;2022-10-31T13:35:59;100894.02;;;14.88;70.53
75852;BME280;64500;52.632;20.656;2022-10-31T13:41:33;100892.61;;;14.76;70.88
75852;BME280;64500;52.632;20.656;2022-10-31T13:44:28;100892.84;;;14.53;71.39
75852;BME280;64500;52.632;20.656;2022-10-31T13:46:57;100899.86;;;14.27;72.16
75852;BME280;64500;52.632;20.656;2022-10-31T13:54:42;100893.81;;;13.98;73.31
75852;BME280;64500;52.632;20.656;2022-10-31T13:57:37;100898.16;;;13.89;73.34
75852;BME280;64500;52.632;20.656;2022-10-31T14:02:49;100905.71;;;13.68;73.79
75852;BME280;64500;52.632;20.656;2022-10-31T14:05:25;100908.45;;;13.59;74.11
75852;BME280;64500;52.632;20.656;2022-10-31T14:07:54;100911.48;;;13.52;73.93
75852;BME280;64500;52.632;20.656;2022-10-31T14:10:31;100913.37;;;13.48;74.15
75852;BME280;64500;52.632;20.656;2022-10-31T14:15:43;100910.77;;;13.26;74.47
75852;BME280;64500;52.632;20.656;2022-10-31T14:20:56;100909.23;;;13.10;74.93
75852;BME280;64500;52.632;20.656;2022-10-31T14:23:39;100908.84;;;13.04;75.09
75852;BME280;64500;52.632;20.656;2022-10-31T14:28:57;100909.73;;;12.90;75.52
75852;BME280;64500;52.632;20.656;2022-10-31T14:31:35;100912.35;;;12.85;75.64
75852;BME280;64500;52.632;20.656;2022-10-31T14:49:16;100914.04;;;12.81;75.49
75852;BME280;64500;52.632;20.656;2022-10-31T14:51:39;100916.69;;;12.96;75.51
75852;BME280;64500;52.632;20.656;2022-10-31T14:54:12;100918.52;;;13.07;75.47
75852;BME280;64500;52.632;20.656;2022-10-31T14:56:49;100914.50;;;13.18;75.47
75852;BME280;64500;52.632;20.656;2022-10-31T14:59:24;100917.98;;;13.29;74.94
75852;BME280;64500;52.632;20.656;2022-10-31T15:01:59;100916.29;;;13.25;74.43
75852;BME280;64500;52.632;20.656;2022-10-31T15:04:29;100917.70;;;13.26;74.30
75852;BME280;64500;52.632;20.656;2022-10-31T15:07:13;100915.83;;;13.22;74.30
75852;BME280;64500;52.632;20.656;2022-10-31T15:09:41;100916.65;;;13.25;74.61
75852;BME280;64500;52.632;20.656;2022-10-31T15:14:56;100918.34;;;13.29;74.99
75852;BME280;64500;52.632;20.656;2022-10-31T15:17:25;100922.52;;;13.32;75.05
75852;BME280;64500;52.632;20.656;2022-10-31T15:19:52;100919.70;;;13.31;74.88